Thunderstorms From: 15-12-2017 06:00 Until: 16-12-2017 06:00 warning for: Thunderstorms Level: Yellow info button

Although rather usual in this region, locally or potentially dangerous phenomena are expected. (such as local winds, summer thunderstorms, rising streams or high waves) Be aware and pay attention to the latest weather updates, especially if you carry out activities exposed to weather or close to a stream or shoreline. 


Meteo18 Weather Cam more information Meteo18 Weather Cam


warning for Thunderstorms more information blitzortung!


Rain radar more information rain snow radar


Visit our other weather sites:

Template documentation
and downloads

And another site



Weather Underground History page Text

Daily Summary for April 17, 2017 Units:  English    Metric   Both
« Previous Day
Next Day »
Daily Weekly Monthly Yearly Custom
  High: Low: Average:
Temperature: 58.3 °F 44.2 °F 50.5 °F
Dew Point: 45.1 °F 38.5 °F 42.1 °F
Humidity: 87 % 57 % 73 %
Wind Speed: 11 mph 0 mph 2.5 mph
Wind Gust: 17 mph - -
Wind:- - WSW
Pressure: 30.3 in 30.2 in -
Precipitation: 0 in    
Historical Graphs
 
 
Tabular Data for April 17, 2017
Time Temperature Dew Point Pressure Wind Wind Speed Wind Gust Humidity Rainfall Rate (Hourly)
00:02 44.8 °F 38.7 °F 30.3 in Calm   1 mph 79 % 0 in
00:07 45 °F 38.8 °F 30.3 in Calm     79 % 0 in
00:12 45 °F 38.8 °F 30.3 in Calm   1 mph 79 % 0 in
00:17 45 °F 38.5 °F 30.3 in Calm   1 mph 78 % 0 in
00:22 45 °F 38.8 °F 30.3 in Calm   1 mph 79 % 0 in
00:32 45 °F 39.2 °F 30.3 in Calm   1 mph 80 % 0 in
00:37 45 °F 39.2 °F 30.3 in Calm   2 mph 80 % 0 in
00:42 44.8 °F 38.7 °F 30.3 in Calm   1 mph 79 % 0 in
00:47 44.8 °F 39 °F 30.3 in Calm   1 mph 80 % 0 in
00:52 45 °F 39.6 °F 30.3 in Calm   2 mph 81 % 0 in
00:57 45.1 °F 39.7 °F 30.3 in Calm   2 mph 81 % 0 in
01:02 45.1 °F 39.4 °F 30.3 in Calm   1 mph 80 % 0 in
01:07 45.1 °F 39.4 °F 30.3 in Calm   1 mph 80 % 0 in
01:12 45.3 °F 39.6 °F 30.3 in Calm   1 mph 80 % 0 in
01:17 45.5 °F 39.7 °F 30.3 in Calm   2 mph 80 % 0 in
01:22 45.5 °F 39.7 °F 30.3 in Calm   2 mph 80 % 0 in
01:27 45.7 °F 39.9 °F 30.2 in Calm   2 mph 80 % 0 in
01:32 45.7 °F 39.6 °F 30.2 in Calm     79 % 0 in
01:37 45.7 °F 39.9 °F 30.2 in Calm     80 % 0 in
01:42 45.7 °F 39.6 °F 30.2 in Calm     79 % 0 in
01:47 45.7 °F 39.6 °F 30.2 in Calm     79 % 0 in
01:52 45.7 °F 39.6 °F 30.2 in Calm     79 % 0 in
01:57 45.7 °F 39.6 °F 30.2 in Calm     79 % 0 in
02:02 45.7 °F 39.2 °F 30.2 in Calm   1 mph 78 % 0 in
02:07 45.7 °F 39.2 °F 30.2 in Calm   1 mph 78 % 0 in
02:12 45.7 °F 39.2 °F 30.2 in Calm   1 mph 78 % 0 in
02:17 45.7 °F 39.6 °F 30.2 in Calm     79 % 0 in
02:22 45.9 °F 39.7 °F 30.2 in Calm     79 % 0 in
02:27 45.9 °F 39.7 °F 30.2 in Calm     79 % 0 in
02:32 45.9 °F 39.7 °F 30.2 in Calm   1 mph 79 % 0 in
02:37 45.9 °F 39.7 °F 30.2 in Calm   1 mph 79 % 0 in
02:42 45.9 °F 40.1 °F 30.2 in Calm   1 mph 80 % 0 in
02:47 45.7 °F 39.9 °F 30.2 in Calm     80 % 0 in
02:52 45.9 °F 40.1 °F 30.2 in Calm     80 % 0 in
02:57 45.9 °F 40.3 °F 30.2 in Calm     81 % 0 in
03:02 45.9 °F 40.6 °F 30.2 in Calm     82 % 0 in
03:07 45.9 °F 40.6 °F 30.2 in Calm   1 mph 82 % 0 in
03:12 45.7 °F 40.5 °F 30.2 in Calm   1 mph 82 % 0 in
03:22 45.7 °F 40.5 °F 30.2 in Calm   1 mph 82 % 0 in
03:27 45.7 °F 40.5 °F 30.2 in Calm   1 mph 82 % 0 in
03:32 45.7 °F 40.5 °F 30.2 in Calm     82 % 0 in
03:37 45.7 °F 40.5 °F 30.2 in Calm     82 % 0 in
03:42 45.7 °F 40.5 °F 30.2 in Calm   1 mph 82 % 0 in
03:47 45.7 °F 40.8 °F 30.2 in Calm   1 mph 83 % 0 in
03:52 45.7 °F 40.8 °F 30.2 in Calm   1 mph 83 % 0 in
03:57 45.7 °F 40.8 °F 30.2 in Calm   1 mph 83 % 0 in
04:02 45.7 °F 40.8 °F 30.2 in Calm   1 mph 83 % 0 in
04:07 45.5 °F 40.6 °F 30.2 in Calm   1 mph 83 % 0 in
04:12 45.5 °F 40.6 °F 30.2 in Calm   1 mph 83 % 0 in
04:17 45.5 °F 40.6 °F 30.2 in Calm   1 mph 83 % 0 in
04:22 45.3 °F 40.5 °F 30.2 in Calm   1 mph 83 % 0 in
04:27 45.3 °F 40.5 °F 30.2 in Calm   1 mph 83 % 0 in
04:32 45.3 °F 40.8 °F 30.2 in Calm     84 % 0 in
04:37 45.3 °F 40.8 °F 30.2 in Calm     84 % 0 in
04:42 45.3 °F 40.8 °F 30.2 in Calm     84 % 0 in
04:47 45.3 °F 40.8 °F 30.2 in Calm     84 % 0 in
04:52 45.5 °F 40.6 °F 30.2 in Calm     83 % 0 in
04:57 45.5 °F 40.6 °F 30.2 in Calm     83 % 0 in
05:02 45.3 °F 40.8 °F 30.2 in Calm   1 mph 84 % 0 in
05:12 45.1 °F 40.8 °F 30.2 in SE 1 mph 1 mph 85 % 0 in
05:17 45.3 °F 41 °F 30.2 in Calm   1 mph 85 % 0 in
05:22 45.3 °F 41 °F 30.2 in Calm   1 mph 85 % 0 in
05:32 45.3 °F 41 °F 30.2 in Calm   1 mph 85 % 0 in
05:42 45.1 °F 40.8 °F 30.2 in Calm     85 % 0 in
05:52 45.1 °F 41.2 °F 30.2 in Calm     86 % 0 in
05:57 45.1 °F 41.2 °F 30.2 in Calm   1 mph 86 % 0 in
06:02 45 °F 41 °F 30.2 in Calm   1 mph 86 % 0 in
06:12 44.8 °F 40.5 °F 30.2 in Calm   1 mph 85 % 0 in
06:17 45 °F 40.6 °F 30.2 in Calm     85 % 0 in
06:22 45.1 °F 40.8 °F 30.2 in Calm     85 % 0 in
06:32 45 °F 40.6 °F 30.2 in Calm     85 % 0 in
06:42 44.8 °F 40.5 °F 30.2 in Calm     85 % 0 in
06:47 44.6 °F 40.5 °F 30.2 in Calm     85 % 0 in
06:52 44.4 °F 40.5 °F 30.2 in Calm     86 % 0 in
07:02 44.6 °F 40.5 °F 30.2 in Calm     85 % 0 in
07:12 44.2 °F 40.1 °F 30.2 in Calm     85 % 0 in
07:17 44.4 °F 40.3 °F 30.2 in Calm     85 % 0 in
07:22 44.8 °F 40.3 °F 30.2 in Calm     84 % 0 in
07:32 44.6 °F 40.5 °F 30.2 in Calm   1 mph 85 % 0 in
07:42 45 °F 41 °F 30.2 in Calm   1 mph 86 % 0 in
07:52 45 °F 41 °F 30.2 in Calm     86 % 0 in
07:57 45 °F 41.4 °F 30.2 in Calm     87 % 0 in
08:02 45.1 °F 41.5 °F 30.2 in Calm     87 % 0 in
08:07 45.1 °F 41.5 °F 30.2 in Calm     87 % 0 in
08:12 45.5 °F 41.9 °F 30.2 in Calm     87 % 0 in
08:22 46 °F 42.1 °F 30.2 in Calm   1 mph 86 % 0 in
08:32 46.4 °F 42.1 °F 30.2 in West 1 mph 1 mph 85 % 0 in
08:42 46.2 °F 41.9 °F 30.2 in WNW 3 mph 3 mph 85 % 0 in
08:47 46.2 °F 42.3 °F 30.2 in WNW 1 mph 5 mph 86 % 0 in
08:52 46.6 °F 42.6 °F 30.2 in NW 4 mph 5 mph 86 % 0 in
08:57 46.9 °F 42.6 °F 30.2 in WNW 3 mph 6 mph 85 % 0 in
09:02 47.5 °F 42.8 °F 30.2 in WNW 2 mph 6 mph 84 % 0 in
09:12 48 °F 43.2 °F 30.2 in WNW 2 mph 6 mph 83 % 0 in
09:17 48.6 °F 43.3 °F 30.2 in Calm   6 mph 82 % 0 in
09:22 49.1 °F 43.9 °F 30.2 in West 2 mph 6 mph 82 % 0 in
09:32 50.4 °F 44.1 °F 30.2 in Calm   5 mph 79 % 0 in
09:42 51.1 °F 44.1 °F 30.2 in West 3 mph 4 mph 77 % 0 in
09:52 51.1 °F 44.1 °F 30.2 in West 2 mph 6 mph 77 % 0 in
09:57 51.4 °F 44.4 °F 30.2 in West 3 mph 7 mph 77 % 0 in
10:02 51.4 °F 44.4 °F 30.2 in Calm   7 mph 77 % 0 in
10:12 51.6 °F 43.9 °F 30.2 in West 5 mph 6 mph 75 % 0 in
10:17 51.6 °F 43.3 °F 30.2 in NW 5 mph 8 mph 73 % 0 in
10:22 51.6 °F 43.9 °F 30.2 in WNW 3 mph 11 mph 75 % 0 in
10:32 51.4 °F 43.2 °F 30.2 in WNW 3 mph 11 mph 73 % 0 in
10:42 51.1 °F 43.2 °F 30.2 in WNW 2 mph 11 mph 74 % 0 in
10:47 51.3 °F 43.3 °F 30.2 in WSW 3 mph 11 mph 74 % 0 in
10:52 51.1 °F 42.8 °F 30.2 in WNW 3 mph 11 mph 73 % 0 in
11:02 51.1 °F 42.8 °F 30.2 in WNW 5 mph 8 mph 73 % 0 in
11:12 51.3 °F 42.6 °F 30.2 in West 3 mph 10 mph 72 % 0 in
11:17 51.4 °F 42.4 °F 30.2 in West 3 mph 9 mph 71 % 0 in
11:22 51.8 °F 42.6 °F 30.2 in WSW 2 mph 9 mph 71 % 0 in
11:32 52 °F 42.1 °F 30.2 in WNW 3 mph 13 mph 69 % 0 in
11:37 52.5 °F 42.6 °F 30.2 in WNW 6 mph 13 mph 69 % 0 in
11:42 52.9 °F 42.6 °F 30.2 in WNW 5 mph 13 mph 68 % 0 in
11:47 53.2 °F 43.3 °F 30.2 in West 6 mph 13 mph 69 % 0 in
11:57 53.4 °F 42.8 °F 30.2 in WSW 5 mph 13 mph 67 % 0 in
12:02 53.8 °F 43.2 °F 30.2 in West 7 mph 13 mph 67 % 0 in
12:12 53.8 °F 43.2 °F 30.2 in West 5 mph 13 mph 67 % 0 in
12:17 54 °F 42.8 °F 30.2 in WNW 6 mph 13 mph 66 % 0 in
12:22 54.3 °F 43.2 °F 30.2 in NW 4 mph 16 mph 66 % 0 in
12:32 55 °F 43.5 °F 30.2 in WNW 4 mph 16 mph 65 % 0 in
12:42 56.7 °F 44.2 °F 30.2 in WNW 11 mph 14 mph 63 % 0 in
12:52 56.8 °F 43.2 °F 30.2 in WNW 5 mph 15 mph 60 % 0 in
12:57 56.7 °F 43.3 °F 30.2 in NW 7 mph 15 mph 61 % 0 in
13:02 56.7 °F 43.3 °F 30.2 in NW 5 mph 13 mph 61 % 0 in
13:07 57 °F 44.1 °F 30.2 in WNW 7 mph 13 mph 62 % 0 in
13:12 57.7 °F 44.8 °F 30.2 in NW 6 mph 11 mph 62 % 0 in
13:17 57.6 °F 44.2 °F 30.2 in NNW 10 mph 14 mph 61 % 0 in
13:22 57.4 °F 43.2 °F 30.2 in WNW 1 mph 14 mph 59 % 0 in
13:27 58.3 °F 43.5 °F 30.2 in West 3 mph 14 mph 58 % 0 in
13:32 58.3 °F 44.1 °F 30.2 in NW 2 mph 14 mph 59 % 0 in
13:37 57.6 °F 42.4 °F 30.2 in WNW 3 mph 9 mph 57 % 0 in
13:42 57.2 °F 42.6 °F 30.2 in NW 3 mph 12 mph 58 % 0 in
13:52 56.1 °F 42.4 °F 30.2 in WNW 6 mph 12 mph 60 % 0 in
13:57 55.9 °F 42.6 °F 30.2 in West 6 mph 12 mph 61 % 0 in
14:02 56.1 °F 43.3 °F 30.2 in West 6 mph 12 mph 62 % 0 in
14:07 56.1 °F 42.8 °F 30.2 in West 5 mph 11 mph 61 % 0 in
14:12 56.1 °F 43.3 °F 30.2 in West 6 mph 11 mph 62 % 0 in
14:17 55.9 °F 43.2 °F 30.2 in WNW 3 mph 11 mph 62 % 0 in
14:22 55.9 °F 43.2 °F 30.2 in NW 2 mph 12 mph 62 % 0 in
14:27 55.9 °F 43.5 °F 30.2 in WNW 10 mph 12 mph 63 % 0 in
14:32 55.8 °F 43 °F 30.2 in WNW 4 mph 12 mph 62 % 0 in
14:37 55.8 °F 43 °F 30.2 in West 5 mph 12 mph 62 % 0 in
14:42 55.8 °F 43 °F 30.2 in WNW 3 mph 12 mph 62 % 0 in
14:47 55.9 °F 43.2 °F 30.2 in WNW 4 mph 11 mph 62 % 0 in
14:52 56.1 °F 43.3 °F 30.2 in West 4 mph 9 mph 62 % 0 in
14:57 56.3 °F 43.9 °F 30.2 in West 2 mph 12 mph 63 % 0 in
15:02 56.5 °F 44.4 °F 30.2 in North 5 mph 12 mph 64 % 0 in
15:07 56.5 °F 44.4 °F 30.2 in NNE 2 mph 12 mph 64 % 0 in
15:12 56.3 °F 43.9 °F 30.2 in WNW 1 mph 7 mph 63 % 0 in
15:22 55.9 °F 43.5 °F 30.2 in WNW 4 mph 9 mph 63 % 0 in
15:32 55.9 °F 43.5 °F 30.2 in West 2 mph 10 mph 63 % 0 in
15:37 55.8 °F 43.7 °F 30.2 in WNW 4 mph 10 mph 64 % 0 in
15:42 55.8 °F 43.7 °F 30.2 in NW 2 mph 8 mph 64 % 0 in
15:47 55.6 °F 43.5 °F 30.2 in WNW 3 mph 7 mph 64 % 0 in
15:52 55.6 °F 44.1 °F 30.2 in NNW 5 mph 9 mph 65 % 0 in
15:57 55.6 °F 44.4 °F 30.2 in NW 2 mph 9 mph 66 % 0 in
16:02 55.6 °F 44.4 °F 30.2 in West 4 mph 9 mph 66 % 0 in
16:07 55.6 °F 44.4 °F 30.2 in NW 2 mph 10 mph 66 % 0 in
16:12 55.8 °F 45 °F 30.2 in WNW 6 mph 10 mph 67 % 0 in
16:17 55.6 °F 44.8 °F 30.2 in WNW 4 mph 11 mph 67 % 0 in
16:22 55.6 °F 45.1 °F 30.2 in NNW 3 mph 11 mph 68 % 0 in
16:27 55.4 °F 44.6 °F 30.2 in NW 3 mph 11 mph 67 % 0 in
16:32 55.2 °F 44.4 °F 30.2 in NNW 6 mph 11 mph 67 % 0 in
16:37 54.9 °F 43.7 °F 30.2 in NNE 10 mph 11 mph 66 % 0 in
16:42 54.7 °F 43.2 °F 30.2 in West 1 mph 11 mph 65 % 0 in
16:47 54.7 °F 43.5 °F 30.2 in WNW 4 mph 11 mph 66 % 0 in
16:52 54.7 °F 42.8 °F 30.2 in Calm   11 mph 64 % 0 in
16:57 55 °F 43.2 °F 30.2 in NNW 6 mph 7 mph 64 % 0 in
17:02 55 °F 41.9 °F 30.2 in NW 5 mph 13 mph 61 % 0 in
17:07 55.2 °F 42.1 °F 30.2 in WNW 2 mph 13 mph 61 % 0 in
17:12 55.4 °F 41.7 °F 30.2 in WNW 5 mph 13 mph 60 % 0 in
17:17 55.6 °F 41.9 °F 30.2 in North 7 mph 13 mph 60 % 0 in
17:22 55.6 °F 42.3 °F 30.2 in NW 4 mph 17 mph 61 % 0 in
17:32 55.6 °F 43.2 °F 30.2 in NW 8 mph 17 mph 63 % 0 in
17:37 55.6 °F 43.5 °F 30.2 in WNW 6 mph 14 mph 64 % 0 in
17:42 55.6 °F 44.1 °F 30.2 in NW 5 mph 14 mph 65 % 0 in
17:47 55.6 °F 43.5 °F 30.2 in North 4 mph 12 mph 64 % 0 in
17:52 55.6 °F 44.1 °F 30.2 in NW 5 mph 13 mph 65 % 0 in
17:57 55.8 °F 44.2 °F 30.2 in NW 3 mph 13 mph 65 % 0 in
18:02 55.8 °F 44.2 °F 30.2 in NNW 5 mph 10 mph 65 % 0 in
18:07 55.6 °F 44.4 °F 30.2 in NNW 11 mph 14 mph 66 % 0 in
18:12 55.6 °F 44.1 °F 30.2 in NNW 6 mph 14 mph 65 % 0 in
18:17 55.4 °F 43 °F 30.2 in NW 4 mph 14 mph 63 % 0 in
18:22 55.2 °F 42.4 °F 30.2 in WNW 7 mph 14 mph 62 % 0 in
18:27 55.2 °F 42.4 °F 30.2 in NW 9 mph 14 mph 62 % 0 in
18:32 55.2 °F 42.8 °F 30.2 in NNW 5 mph 14 mph 63 % 0 in
18:37 55.2 °F 43.3 °F 30.2 in North 4 mph 14 mph 64 % 0 in
18:42 55.2 °F 43.3 °F 30.2 in WNW 6 mph 9 mph 64 % 0 in
18:47 55.6 °F 43.5 °F 30.2 in NW 3 mph 9 mph 64 % 0 in
18:52 55.8 °F 43.3 °F 30.2 in WSW 4 mph 8 mph 63 % 0 in
18:57 55.8 °F 43.3 °F 30.2 in NW 1 mph 8 mph 63 % 0 in
19:02 55.9 °F 43.9 °F 30.2 in NW 2 mph 9 mph 64 % 0 in
19:07 55.6 °F 44.4 °F 30.2 in NNW 7 mph 10 mph 66 % 0 in
19:12 55.6 °F 44.8 °F 30.2 in NW 4 mph 12 mph 67 % 0 in
19:17 55.2 °F 44.1 °F 30.2 in NNW 9 mph 12 mph 66 % 0 in
19:22 55 °F 43.2 °F 30.2 in NNW 6 mph 16 mph 64 % 0 in
19:27 54.9 °F 43 °F 30.2 in North 4 mph 16 mph 64 % 0 in
19:32 54.7 °F 43.2 °F 30.2 in NNE 6 mph 16 mph 65 % 0 in
19:37 54.3 °F 42.8 °F 30.2 in NW 5 mph 12 mph 65 % 0 in
19:42 54.3 °F 42.8 °F 30.2 in WNW 4 mph 11 mph 65 % 0 in
19:52 54.3 °F 42.1 °F 30.2 in NNW 3 mph 13 mph 63 % 0 in
19:57 54.1 °F 41.9 °F 30.2 in NW 6 mph 13 mph 63 % 0 in
20:02 54.1 °F 41.9 °F 30.2 in NNE 4 mph 13 mph 63 % 0 in
20:07 54 °F 41.7 °F 30.2 in WNW 2 mph 13 mph 63 % 0 in
20:12 53.8 °F 41.5 °F 30.2 in North 3 mph 12 mph 63 % 0 in
20:17 53.6 °F 41.7 °F 30.2 in North 5 mph 12 mph 64 % 0 in
20:22 53.4 °F 42.3 °F 30.2 in NNE 3 mph 11 mph 66 % 0 in
20:27 53.1 °F 42.4 °F 30.2 in NE 4 mph 14 mph 67 % 0 in
20:32 52.7 °F 42.4 °F 30.2 in NNW 8 mph 14 mph 68 % 0 in
20:37 52.3 °F 42.4 °F 30.2 in NW 6 mph 15 mph 69 % 0 in
20:42 52.2 °F 42.3 °F 30.2 in NNE 5 mph 15 mph 69 % 0 in
20:47 52 °F 42.4 °F 30.2 in North 8 mph 15 mph 70 % 0 in
20:52 51.8 °F 41.9 °F 30.2 in North 2 mph 13 mph 69 % 0 in
20:57 51.6 °F 42.1 °F 30.2 in North 3 mph 11 mph 70 % 0 in
21:02 51.4 °F 41.9 °F 30.2 in NNW 5 mph 10 mph 70 % 0 in
21:07 51.4 °F 42.4 °F 30.2 in NNE 1 mph 10 mph 71 % 0 in
21:12 51.3 °F 42.3 °F 30.2 in NE 5 mph 10 mph 71 % 0 in
21:17 51.3 °F 42.6 °F 30.2 in NNE 6 mph 11 mph 72 % 0 in
21:22 51.1 °F 42.8 °F 30.2 in NNE 2 mph 11 mph 73 % 0 in
21:32 51.1 °F 42.8 °F 30.2 in NNE 2 mph 9 mph 73 % 0 in
21:37 50.9 °F 43 °F 30.2 in NNE 2 mph 9 mph 74 % 0 in
21:42 50.7 °F 42.8 °F 30.2 in Calm   9 mph 74 % 0 in
21:47 50.7 °F 42.8 °F 30.2 in NNW 1 mph 9 mph 74 % 0 in
21:57 50.7 °F 43.2 °F 30.2 in NNE 7 mph 7 mph 75 % 0 in
22:02 50.5 °F 43 °F 30.2 in NNE 2 mph 7 mph 75 % 0 in
22:12 50.4 °F 42.8 °F 30.2 in North 3 mph 7 mph 75 % 0 in
22:17 50.4 °F 42.8 °F 30.2 in NNE 7 mph 7 mph 75 % 0 in
22:22 50.2 °F 42.6 °F 30.2 in ENE 2 mph 8 mph 75 % 0 in
22:32 50 °F 42.1 °F 30.2 in NNE 3 mph 10 mph 74 % 0 in
22:37 49.8 °F 41.5 °F 30.2 in NE 5 mph 12 mph 73 % 0 in
22:42 49.6 °F 41.4 °F 30.2 in NW 6 mph 12 mph 73 % 0 in
22:47 49.5 °F 41.2 °F 30.2 in NE 3 mph 10 mph 73 % 0 in
22:52 49.1 °F 40.8 °F 30.2 in North 2 mph 8 mph 73 % 0 in
22:57 48.9 °F 41 °F 30.2 in Calm   8 mph 74 % 0 in
23:02 48.7 °F 40.8 °F 30.2 in North 2 mph 7 mph 74 % 0 in
23:07 48.7 °F 40.8 °F 30.2 in Calm   7 mph 74 % 0 in
23:12 48.4 °F 40.8 °F 30.2 in NNW 1 mph 5 mph 75 % 0 in
23:17 48.2 °F 40.6 °F 30.2 in North 1 mph 4 mph 75 % 0 in
23:22 48 °F 40.8 °F 30.2 in Calm   3 mph 76 % 0 in
23:27 47.8 °F 40.6 °F 30.2 in Calm   3 mph 76 % 0 in
23:32 47.7 °F 40.5 °F 30.2 in Calm   3 mph 76 % 0 in
23:37 47.7 °F 40.8 °F 30.2 in Calm   3 mph 77 % 0 in
23:42 47.5 °F 40.6 °F 30.2 in NE 1 mph 4 mph 77 % 0 in
23:52 47.8 °F 40.6 °F 30.2 in NE 3 mph 11 mph 76 % 0 in
23:57 47.8 °F 40.6 °F 30.2 in NNE 7 mph 11 mph 76 % 0 in
Meteo18
Compliments of Weather Underground - 4 mb

Script developed by  Jim McMurry - jmcmurry@mwt.net Adapted for the template by  Wim van der Kuil - Leuven-Template.eu

You find our weather info also at:

European Weather Network

Weather Underground

Equipment we use:

Weather-station
Davis Vue

Weather-program
Meteohub

Weather-server
Raspberry PI 2 B+

Provider
1 and 1

Davis Vue

Meteohub

Raspberry PI 2 B+

1 and 1